sensor_id;sensor_type;location;lat;lon;timestamp;temperature;humidity
54431;DHT22;40342;52.998;5.862;2023-02-15T00:00:53;2.30;99.90
54431;DHT22;40342;52.998;5.862;2023-02-15T00:03:22;2.30;99.90
54431;DHT22;40342;52.998;5.862;2023-02-15T00:05:47;2.20;99.90
54431;DHT22;40342;52.998;5.862;2023-02-15T00:08:13;2.20;99.90
54431;DHT22;40342;52.998;5.862;2023-02-15T00:10:38;2.10;99.90
54431;DHT22;40342;52.998;5.862;2023-02-15T00:13:04;2.20;99.90
54431;DHT22;40342;52.998;5.862;2023-02-15T00:15:29;2.20;99.90
54431;DHT22;40342;52.998;5.862;2023-02-15T00:17:56;2.10;99.90
54431;DHT22;40342;52.998;5.862;2023-02-15T00:20:21;2.10;99.90
54431;DHT22;40342;52.998;5.862;2023-02-15T00:22:47;2.10;99.90
54431;DHT22;40342;52.998;5.862;2023-02-15T00:25:12;2.10;99.90
54431;DHT22;40342;52.998;5.862;2023-02-15T00:27:38;2.10;99.90
54431;DHT22;40342;52.998;5.862;2023-02-15T00:30:03;2.00;99.90
54431;DHT22;40342;52.998;5.862;2023-02-15T00:32:29;2.00;99.90
54431;DHT22;40342;52.998;5.862;2023-02-15T00:34:55;1.90;99.90
54431;DHT22;40342;52.998;5.862;2023-02-15T00:37:20;1.80;99.90
54431;DHT22;40342;52.998;5.862;2023-02-15T00:39:45;1.70;99.90
54431;DHT22;40342;52.998;5.862;2023-02-15T00:42:11;1.60;99.90
54431;DHT22;40342;52.998;5.862;2023-02-15T00:44:36;1.60;99.90
54431;DHT22;40342;52.998;5.862;2023-02-15T00:47:02;1.60;99.90
54431;DHT22;40342;52.998;5.862;2023-02-15T00:49:27;1.60;99.90
54431;DHT22;40342;52.998;5.862;2023-02-15T00:51:53;1.60;99.90
54431;DHT22;40342;52.998;5.862;2023-02-15T00:54:18;1.70;99.90
54431;DHT22;40342;52.998;5.862;2023-02-15T00:56:44;1.60;99.90
54431;DHT22;40342;52.998;5.862;2023-02-15T00:59:09;1.60;99.90
54431;DHT22;40342;52.998;5.862;2023-02-15T01:01:35;1.60;99.90
54431;DHT22;40342;52.998;5.862;2023-02-15T01:04:01;1.60;99.90
54431;DHT22;40342;52.998;5.862;2023-02-15T01:06:26;1.60;99.90
54431;DHT22;40342;52.998;5.862;2023-02-15T01:08:52;1.60;99.90
54431;DHT22;40342;52.998;5.862;2023-02-15T01:11:18;1.60;99.90
54431;DHT22;40342;52.998;5.862;2023-02-15T01:13:47;1.60;99.90
54431;DHT22;40342;52.998;5.862;2023-02-15T01:16:13;1.60;99.90
54431;DHT22;40342;52.998;5.862;2023-02-15T01:18:39;1.60;99.90
54431;DHT22;40342;52.998;5.862;2023-02-15T01:21:15;1.50;99.90
54431;DHT22;40342;52.998;5.862;2023-02-15T01:23:41;1.50;99.90
54431;DHT22;40342;52.998;5.862;2023-02-15T01:26:07;1.50;99.90
54431;DHT22;40342;52.998;5.862;2023-02-15T01:28:33;1.50;99.90
54431;DHT22;40342;52.998;5.862;2023-02-15T01:30:58;1.40;99.90
54431;DHT22;40342;52.998;5.862;2023-02-15T01:33:24;1.30;99.90
54431;DHT22;40342;52.998;5.862;2023-02-15T01:35:55;1.30;99.90
54431;DHT22;40342;52.998;5.862;2023-02-15T01:38:21;1.10;99.90
54431;DHT22;40342;52.998;5.862;2023-02-15T01:40:46;1.10;99.90
54431;DHT22;40342;52.998;5.862;2023-02-15T01:43:15;1.10;99.90
54431;DHT22;40342;52.998;5.862;2023-02-15T01:45:40;1.10;99.90
54431;DHT22;40342;52.998;5.862;2023-02-15T01:48:20;1.10;99.90
54431;DHT22;40342;52.998;5.862;2023-02-15T01:50:50;1.10;99.90
54431;DHT22;40342;52.998;5.862;2023-02-15T01:53:24;1.00;99.90
54431;DHT22;40342;52.998;5.862;2023-02-15T01:55:55;1.00;99.90
54431;DHT22;40342;52.998;5.862;2023-02-15T01:58:22;1.00;99.90
54431;DHT22;40342;52.998;5.862;2023-02-15T02:00:49;0.90;99.90
54431;DHT22;40342;52.998;5.862;2023-02-15T02:03:15;1.00;99.90
54431;DHT22;40342;52.998;5.862;2023-02-15T02:05:40;0.90;99.90
54431;DHT22;40342;52.998;5.862;2023-02-15T02:08:06;1.00;99.90
54431;DHT22;40342;52.998;5.862;2023-02-15T02:10:32;1.00;99.90
54431;DHT22;40342;52.998;5.862;2023-02-15T02:12:59;1.00;99.90
54431;DHT22;40342;52.998;5.862;2023-02-15T02:15:32;1.00;99.90
54431;DHT22;40342;52.998;5.862;2023-02-15T02:20:59;1.00;99.90
54431;DHT22;40342;52.998;5.862;2023-02-15T02:23:30;1.00;99.90
54431;DHT22;40342;52.998;5.862;2023-02-15T02:26:06;1.10;99.90
54431;DHT22;40342;52.998;5.862;2023-02-15T02:31:14;1.10;99.90
54431;DHT22;40342;52.998;5.862;2023-02-15T02:33:47;1.10;99.90
54431;DHT22;40342;52.998;5.862;2023-02-15T02:36:30;1.10;99.90
54431;DHT22;40342;52.998;5.862;2023-02-15T02:39:04;1.10;99.90
54431;DHT22;40342;52.998;5.862;2023-02-15T02:46:33;1.10;99.90
54431;DHT22;40342;52.998;5.862;2023-02-15T02:49:01;1.10;99.90
54431;DHT22;40342;52.998;5.862;2023-02-15T02:51:26;1.10;99.90
54431;DHT22;40342;52.998;5.862;2023-02-15T02:53:53;1.10;99.90
54431;DHT22;40342;52.998;5.862;2023-02-15T02:58:51;1.20;99.90
54431;DHT22;40342;52.998;5.862;2023-02-15T03:01:20;1.20;99.90
54431;DHT22;40342;52.998;5.862;2023-02-15T03:03:52;1.30;99.90
54431;DHT22;40342;52.998;5.862;2023-02-15T03:06:19;1.30;99.90
54431;DHT22;40342;52.998;5.862;2023-02-15T03:08:50;1.30;99.90
54431;DHT22;40342;52.998;5.862;2023-02-15T03:11:16;1.30;99.90
54431;DHT22;40342;52.998;5.862;2023-02-15T03:13:42;1.20;99.90
54431;DHT22;40342;52.998;5.862;2023-02-15T03:16:08;1.10;99.90
54431;DHT22;40342;52.998;5.862;2023-02-15T03:21:57;1.00;99.90
54431;DHT22;40342;52.998;5.862;2023-02-15T03:24:32;1.00;99.90
54431;DHT22;40342;52.998;5.862;2023-02-15T03:26:59;0.90;99.90
54431;DHT22;40342;52.998;5.862;2023-02-15T03:29:27;0.80;99.90
54431;DHT22;40342;52.998;5.862;2023-02-15T03:31:58;0.80;99.90
54431;DHT22;40342;52.998;5.862;2023-02-15T03:34:25;0.70;99.90
54431;DHT22;40342;52.998;5.862;2023-02-15T03:36:52;0.70;99.90
54431;DHT22;40342;52.998;5.862;2023-02-15T03:39:23;0.70;99.90
54431;DHT22;40342;52.998;5.862;2023-02-15T03:42:03;0.70;99.90
54431;DHT22;40342;52.998;5.862;2023-02-15T03:44:33;0.70;99.90
54431;DHT22;40342;52.998;5.862;2023-02-15T03:47:04;0.70;99.90
54431;DHT22;40342;52.998;5.862;2023-02-15T03:52:00;0.70;99.90
54431;DHT22;40342;52.998;5.862;2023-02-15T03:54:29;0.70;99.90
54431;DHT22;40342;52.998;5.862;2023-02-15T03:57:25;0.70;99.90
54431;DHT22;40342;52.998;5.862;2023-02-15T04:00:12;0.70;99.90
54431;DHT22;40342;52.998;5.862;2023-02-15T04:03:00;0.80;99.90
54431;DHT22;40342;52.998;5.862;2023-02-15T04:05:28;0.80;99.90
54431;DHT22;40342;52.998;5.862;2023-02-15T04:07:53;0.80;99.90
54431;DHT22;40342;52.998;5.862;2023-02-15T04:10:18;0.70;99.90
54431;DHT22;40342;52.998;5.862;2023-02-15T04:13:03;0.70;99.90
54431;DHT22;40342;52.998;5.862;2023-02-15T04:15:28;0.70;99.90
54431;DHT22;40342;52.998;5.862;2023-02-15T04:18:13;0.70;99.90
54431;DHT22;40342;52.998;5.862;2023-02-15T04:20:38;0.70;99.90
54431;DHT22;40342;52.998;5.862;2023-02-15T04:23:22;0.70;99.90
54431;DHT22;40342;52.998;5.862;2023-02-15T04:26:07;0.70;99.90
54431;DHT22;40342;52.998;5.862;2023-02-15T04:28:32;0.80;99.90
54431;DHT22;40342;52.998;5.862;2023-02-15T04:30:58;0.80;99.90
54431;DHT22;40342;52.998;5.862;2023-02-15T04:33:23;0.80;99.90
54431;DHT22;40342;52.998;5.862;2023-02-15T04:35:49;0.80;99.90
54431;DHT22;40342;52.998;5.862;2023-02-15T04:38:14;0.90;99.90
54431;DHT22;40342;52.998;5.862;2023-02-15T04:40:40;0.90;99.90
54431;DHT22;40342;52.998;5.862;2023-02-15T04:43:05;0.90;99.90
54431;DHT22;40342;52.998;5.862;2023-02-15T04:45:30;1.00;99.90
54431;DHT22;40342;52.998;5.862;2023-02-15T04:47:56;1.00;99.90
54431;DHT22;40342;52.998;5.862;2023-02-15T04:50:21;1.80;99.90
54431;DHT22;40342;52.998;5.862;2023-02-15T04:52:47;1.00;99.90
54431;DHT22;40342;52.998;5.862;2023-02-15T04:55:12;1.00;99.90
54431;DHT22;40342;52.998;5.862;2023-02-15T04:57:39;1.00;99.90
54431;DHT22;40342;52.998;5.862;2023-02-15T05:00:05;1.10;99.90
54431;DHT22;40342;52.998;5.862;2023-02-15T05:02:30;1.10;99.90
54431;DHT22;40342;52.998;5.862;2023-02-15T05:04:56;1.10;99.90
54431;DHT22;40342;52.998;5.862;2023-02-15T05:07:22;1.10;99.90
54431;DHT22;40342;52.998;5.862;2023-02-15T05:09:47;1.10;99.90
54431;DHT22;40342;52.998;5.862;2023-02-15T05:12:13;1.20;99.90
54431;DHT22;40342;52.998;5.862;2023-02-15T05:14:38;1.20;99.90
54431;DHT22;40342;52.998;5.862;2023-02-15T05:17:04;1.20;99.90
54431;DHT22;40342;52.998;5.862;2023-02-15T05:19:30;1.20;99.90
54431;DHT22;40342;52.998;5.862;2023-02-15T05:21:56;1.20;99.90
54431;DHT22;40342;52.998;5.862;2023-02-15T05:24:21;1.30;99.90
54431;DHT22;40342;52.998;5.862;2023-02-15T05:27:06;1.30;99.90
54431;DHT22;40342;52.998;5.862;2023-02-15T05:29:50;1.30;99.90
54431;DHT22;40342;52.998;5.862;2023-02-15T05:32:15;1.30;99.90
54431;DHT22;40342;52.998;5.862;2023-02-15T05:34:41;1.30;99.90
54431;DHT22;40342;52.998;5.862;2023-02-15T05:37:06;1.30;99.90
54431;DHT22;40342;52.998;5.862;2023-02-15T05:39:33;1.40;99.90
54431;DHT22;40342;52.998;5.862;2023-02-15T05:42:01;1.40;99.90
54431;DHT22;40342;52.998;5.862;2023-02-15T05:44:27;1.40;99.90
54431;DHT22;40342;52.998;5.862;2023-02-15T05:46:52;1.50;99.90
54431;DHT22;40342;52.998;5.862;2023-02-15T05:49:18;1.50;99.90
54431;DHT22;40342;52.998;5.862;2023-02-15T05:51:43;1.60;99.90
54431;DHT22;40342;52.998;5.862;2023-02-15T05:54:08;1.60;99.90
54431;DHT22;40342;52.998;5.862;2023-02-15T05:56:34;1.60;99.90
54431;DHT22;40342;52.998;5.862;2023-02-15T05:58:59;1.60;99.90
54431;DHT22;40342;52.998;5.862;2023-02-15T06:01:25;1.60;99.90
54431;DHT22;40342;52.998;5.862;2023-02-15T06:03:50;1.60;99.90
54431;DHT22;40342;52.998;5.862;2023-02-15T06:06:17;1.60;99.90
54431;DHT22;40342;52.998;5.862;2023-02-15T06:08:42;1.50;99.90
54431;DHT22;40342;52.998;5.862;2023-02-15T06:11:08;1.50;99.90
54431;DHT22;40342;52.998;5.862;2023-02-15T06:13:34;1.50;99.90
54431;DHT22;40342;52.998;5.862;2023-02-15T06:15:59;1.50;99.90
54431;DHT22;40342;52.998;5.862;2023-02-15T06:18:25;1.50;99.90
54431;DHT22;40342;52.998;5.862;2023-02-15T06:20:50;1.50;99.90
54431;DHT22;40342;52.998;5.862;2023-02-15T06:23:16;1.50;99.90
54431;DHT22;40342;52.998;5.862;2023-02-15T06:25:41;1.50;99.90
54431;DHT22;40342;52.998;5.862;2023-02-15T06:28:08;1.50;99.90
54431;DHT22;40342;52.998;5.862;2023-02-15T06:30:33;1.50;99.90
54431;DHT22;40342;52.998;5.862;2023-02-15T06:32:59;1.50;99.90
54431;DHT22;40342;52.998;5.862;2023-02-15T06:35:24;1.50;99.90
54431;DHT22;40342;52.998;5.862;2023-02-15T06:37:50;1.60;99.90
54431;DHT22;40342;52.998;5.862;2023-02-15T06:40:15;1.60;99.90
54431;DHT22;40342;52.998;5.862;2023-02-15T06:42:41;1.60;99.90
54431;DHT22;40342;52.998;5.862;2023-02-15T06:45:07;1.60;99.90
54431;DHT22;40342;52.998;5.862;2023-02-15T06:47:33;1.60;99.90
54431;DHT22;40342;52.998;5.862;2023-02-15T06:49:58;1.60;99.90
54431;DHT22;40342;52.998;5.862;2023-02-15T06:52:24;1.60;99.90
54431;DHT22;40342;52.998;5.862;2023-02-15T06:54:49;1.60;99.90
54431;DHT22;40342;52.998;5.862;2023-02-15T06:57:15;1.50;99.90
54431;DHT22;40342;52.998;5.862;2023-02-15T06:59:40;1.50;99.90
54431;DHT22;40342;52.998;5.862;2023-02-15T07:02:06;1.50;99.90
54431;DHT22;40342;52.998;5.862;2023-02-15T07:04:31;1.50;99.90
54431;DHT22;40342;52.998;5.862;2023-02-15T07:06:57;1.40;99.90
54431;DHT22;40342;52.998;5.862;2023-02-15T07:09:22;1.50;99.90
54431;DHT22;40342;52.998;5.862;2023-02-15T07:11:48;1.50;99.90
54431;DHT22;40342;52.998;5.862;2023-02-15T07:14:32;1.40;99.90
54431;DHT22;40342;52.998;5.862;2023-02-15T07:16:58;1.50;99.90
54431;DHT22;40342;52.998;5.862;2023-02-15T07:19:23;1.40;99.90
54431;DHT22;40342;52.998;5.862;2023-02-15T07:21:49;1.40;99.90
54431;DHT22;40342;52.998;5.862;2023-02-15T07:26:40;1.50;99.90
54431;DHT22;40342;52.998;5.862;2023-02-15T07:29:06;1.50;99.90
54431;DHT22;40342;52.998;5.862;2023-02-15T07:31:31;1.50;99.90
54431;DHT22;40342;52.998;5.862;2023-02-15T07:33:57;1.50;99.90
54431;DHT22;40342;52.998;5.862;2023-02-15T07:36:22;1.50;99.90
54431;DHT22;40342;52.998;5.862;2023-02-15T07:38:48;1.60;99.90
54431;DHT22;40342;52.998;5.862;2023-02-15T07:41:14;1.50;99.90
54431;DHT22;40342;52.998;5.862;2023-02-15T07:43:40;1.60;99.90
54431;DHT22;40342;52.998;5.862;2023-02-15T07:46:07;1.50;99.90
54431;DHT22;40342;52.998;5.862;2023-02-15T07:48:33;1.60;99.90
54431;DHT22;40342;52.998;5.862;2023-02-15T07:51:03;1.50;99.90
54431;DHT22;40342;52.998;5.862;2023-02-15T07:53:28;1.50;99.90
54431;DHT22;40342;52.998;5.862;2023-02-15T07:55:54;1.60;99.90
54431;DHT22;40342;52.998;5.862;2023-02-15T07:58:20;1.60;99.90
54431;DHT22;40342;52.998;5.862;2023-02-15T08:00:45;1.50;99.90
54431;DHT22;40342;52.998;5.862;2023-02-15T08:03:24;1.60;99.90
54431;DHT22;40342;52.998;5.862;2023-02-15T08:05:55;1.60;99.90
54431;DHT22;40342;52.998;5.862;2023-02-15T08:08:20;1.60;99.90
54431;DHT22;40342;52.998;5.862;2023-02-15T08:13:46;1.60;99.90
54431;DHT22;40342;52.998;5.862;2023-02-15T08:16:28;1.60;99.90
54431;DHT22;40342;52.998;5.862;2023-02-15T08:18:54;1.60;99.90
54431;DHT22;40342;52.998;5.862;2023-02-15T08:21:20;1.60;99.90
54431;DHT22;40342;52.998;5.862;2023-02-15T08:23:46;1.70;99.90
54431;DHT22;40342;52.998;5.862;2023-02-15T08:26:11;1.70;99.90
54431;DHT22;40342;52.998;5.862;2023-02-15T08:28:37;1.70;99.90
54431;DHT22;40342;52.998;5.862;2023-02-15T08:31:06;1.80;99.90
54431;DHT22;40342;52.998;5.862;2023-02-15T08:33:32;1.80;99.90
54431;DHT22;40342;52.998;5.862;2023-02-15T08:36:01;1.80;99.90
54431;DHT22;40342;52.998;5.862;2023-02-15T08:38:27;1.80;99.90
54431;DHT22;40342;52.998;5.862;2023-02-15T08:40:52;1.80;99.90
54431;DHT22;40342;52.998;5.862;2023-02-15T08:43:18;1.90;99.90
54431;DHT22;40342;52.998;5.862;2023-02-15T08:45:43;1.90;99.90
54431;DHT22;40342;52.998;5.862;2023-02-15T08:48:08;1.90;99.90
54431;DHT22;40342;52.998;5.862;2023-02-15T08:50:34;1.90;99.90
54431;DHT22;40342;52.998;5.862;2023-02-15T08:52:59;2.00;99.90
54431;DHT22;40342;52.998;5.862;2023-02-15T08:55:25;2.00;99.90
54431;DHT22;40342;52.998;5.862;2023-02-15T08:57:50;2.00;99.90
54431;DHT22;40342;52.998;5.862;2023-02-15T09:00:16;2.10;99.90
54431;DHT22;40342;52.998;5.862;2023-02-15T09:02:42;2.10;99.90
54431;DHT22;40342;52.998;5.862;2023-02-15T09:05:07;2.20;99.90
54431;DHT22;40342;52.998;5.862;2023-02-15T09:07:33;2.30;99.90
54431;DHT22;40342;52.998;5.862;2023-02-15T09:09:58;2.30;99.90
54431;DHT22;40342;52.998;5.862;2023-02-15T09:12:24;2.50;99.90
54431;DHT22;40342;52.998;5.862;2023-02-15T09:14:49;2.60;99.90
54431;DHT22;40342;52.998;5.862;2023-02-15T09:17:15;2.70;99.90
54431;DHT22;40342;52.998;5.862;2023-02-15T09:19:40;2.70;99.90
54431;DHT22;40342;52.998;5.862;2023-02-15T09:22:06;2.90;99.90
54431;DHT22;40342;52.998;5.862;2023-02-15T09:24:31;3.00;99.90
54431;DHT22;40342;52.998;5.862;2023-02-15T09:26:57;3.00;99.90
54431;DHT22;40342;52.998;5.862;2023-02-15T09:29:22;3.10;99.90
54431;DHT22;40342;52.998;5.862;2023-02-15T09:31:49;3.20;99.90
54431;DHT22;40342;52.998;5.862;2023-02-15T09:34:16;3.30;99.90
54431;DHT22;40342;52.998;5.862;2023-02-15T09:36:42;3.40;99.90
54431;DHT22;40342;52.998;5.862;2023-02-15T09:39:09;3.40;99.90
54431;DHT22;40342;52.998;5.862;2023-02-15T09:44:32;3.70;99.90
54431;DHT22;40342;52.998;5.862;2023-02-15T09:52:38;4.10;99.90
54431;DHT22;40342;52.998;5.862;2023-02-15T10:02:49;4.80;99.90
54431;DHT22;40342;52.998;5.862;2023-02-15T10:07:59;5.10;99.90
54431;DHT22;40342;52.998;5.862;2023-02-15T10:20:20;5.90;99.90
54431;DHT22;40342;52.998;5.862;2023-02-15T10:22:59;6.00;99.90
54431;DHT22;40342;52.998;5.862;2023-02-15T10:25:28;6.00;99.90
54431;DHT22;40342;52.998;5.862;2023-02-15T10:27:58;6.10;99.90
54431;DHT22;40342;52.998;5.862;2023-02-15T10:30:29;6.20;99.90
54431;DHT22;40342;52.998;5.862;2023-02-15T10:33:01;6.30;99.90
54431;DHT22;40342;52.998;5.862;2023-02-15T10:38:21;6.50;99.90
54431;DHT22;40342;52.998;5.862;2023-02-15T10:50:45;6.90;99.90
54431;DHT22;40342;52.998;5.862;2023-02-15T10:53:19;6.90;99.90
54431;DHT22;40342;52.998;5.862;2023-02-15T10:58:27;7.10;99.90
54431;DHT22;40342;52.998;5.862;2023-02-15T11:03:48;7.30;99.90
54431;DHT22;40342;52.998;5.862;2023-02-15T11:06:17;7.40;99.90
54431;DHT22;40342;52.998;5.862;2023-02-15T11:08:45;7.40;99.90
54431;DHT22;40342;52.998;5.862;2023-02-15T11:11:15;7.50;99.90
54431;DHT22;40342;52.998;5.862;2023-02-15T11:13:47;7.50;99.90
54431;DHT22;40342;52.998;5.862;2023-02-15T11:16:14;7.50;99.90
54431;DHT22;40342;52.998;5.862;2023-02-15T11:18:46;7.60;99.90
54431;DHT22;40342;52.998;5.862;2023-02-15T11:21:17;7.70;99.90
54431;DHT22;40342;52.998;5.862;2023-02-15T11:23:45;7.80;99.90
54431;DHT22;40342;52.998;5.862;2023-02-15T11:26:12;7.80;99.90
54431;DHT22;40342;52.998;5.862;2023-02-15T11:28:43;7.90;99.90
54431;DHT22;40342;52.998;5.862;2023-02-15T11:31:12;8.00;99.90
54431;DHT22;40342;52.998;5.862;2023-02-15T11:33:38;8.20;99.90
54431;DHT22;40342;52.998;5.862;2023-02-15T11:36:18;8.30;99.90
54431;DHT22;40342;52.998;5.862;2023-02-15T11:38:44;8.40;99.90
54431;DHT22;40342;52.998;5.862;2023-02-15T11:41:13;8.50;99.90
54431;DHT22;40342;52.998;5.862;2023-02-15T11:43:48;8.70;99.90
54431;DHT22;40342;52.998;5.862;2023-02-15T11:46:16;8.80;99.90
54431;DHT22;40342;52.998;5.862;2023-02-15T11:48:43;8.90;99.90
54431;DHT22;40342;52.998;5.862;2023-02-15T11:51:11;9.00;99.90
54431;DHT22;40342;52.998;5.862;2023-02-15T11:53:38;9.10;99.90
54431;DHT22;40342;52.998;5.862;2023-02-15T11:56:04;9.30;99.90
54431;DHT22;40342;52.998;5.862;2023-02-15T11:58:33;9.40;99.90
54431;DHT22;40342;52.998;5.862;2023-02-15T12:01:02;9.40;99.90
54431;DHT22;40342;52.998;5.862;2023-02-15T12:06:13;9.50;99.90
54431;DHT22;40342;52.998;5.862;2023-02-15T12:08:42;9.50;99.90
54431;DHT22;40342;52.998;5.862;2023-02-15T12:11:11;9.60;99.90
54431;DHT22;40342;52.998;5.862;2023-02-15T12:16:21;9.70;99.90
54431;DHT22;40342;52.998;5.862;2023-02-15T12:18:47;9.80;99.90
54431;DHT22;40342;52.998;5.862;2023-02-15T12:21:23;9.70;99.90
54431;DHT22;40342;52.998;5.862;2023-02-15T12:23:51;9.80;99.90
54431;DHT22;40342;52.998;5.862;2023-02-15T12:26:53;9.70;99.90
54431;DHT22;40342;52.998;5.862;2023-02-15T12:29:27;9.70;99.90
54431;DHT22;40342;52.998;5.862;2023-02-15T12:31:54;9.70;99.90
54431;DHT22;40342;52.998;5.862;2023-02-15T12:34:25;9.70;99.90
54431;DHT22;40342;52.998;5.862;2023-02-15T12:36:53;9.70;99.90
54431;DHT22;40342;52.998;5.862;2023-02-15T12:39:27;9.70;99.90
54431;DHT22;40342;52.998;5.862;2023-02-15T12:44:25;9.70;99.90
54431;DHT22;40342;52.998;5.862;2023-02-15T12:47:02;9.70;99.90
54431;DHT22;40342;52.998;5.862;2023-02-15T12:49:29;9.70;99.90
54431;DHT22;40342;52.998;5.862;2023-02-15T12:51:59;9.70;99.90
54431;DHT22;40342;52.998;5.862;2023-02-15T12:54:28;9.70;99.90
54431;DHT22;40342;52.998;5.862;2023-02-15T12:56:54;9.70;99.90
54431;DHT22;40342;52.998;5.862;2023-02-15T12:59:19;9.70;99.90
54431;DHT22;40342;52.998;5.862;2023-02-15T13:01:46;9.70;99.90
54431;DHT22;40342;52.998;5.862;2023-02-15T13:06:49;9.70;99.90
54431;DHT22;40342;52.998;5.862;2023-02-15T13:09:16;9.70;99.90
54431;DHT22;40342;52.998;5.862;2023-02-15T13:11:43;9.70;99.90
54431;DHT22;40342;52.998;5.862;2023-02-15T13:14:16;9.70;99.90
54431;DHT22;40342;52.998;5.862;2023-02-15T13:16:42;9.70;99.90
54431;DHT22;40342;52.998;5.862;2023-02-15T13:19:10;9.70;99.90
54431;DHT22;40342;52.998;5.862;2023-02-15T13:21:38;9.80;99.90
54431;DHT22;40342;52.998;5.862;2023-02-15T13:24:27;9.80;99.90
54431;DHT22;40342;52.998;5.862;2023-02-15T13:26:51;9.80;99.90
54431;DHT22;40342;52.998;5.862;2023-02-15T13:29:30;9.90;99.90
54431;DHT22;40342;52.998;5.862;2023-02-15T13:31:57;9.90;99.90
54431;DHT22;40342;52.998;5.862;2023-02-15T13:34:24;9.90;99.90
54431;DHT22;40342;52.998;5.862;2023-02-15T13:37:08;9.90;99.90
54431;DHT22;40342;52.998;5.862;2023-02-15T13:39:54;9.90;99.90
54431;DHT22;40342;52.998;5.862;2023-02-15T13:50:28;9.90;99.90
54431;DHT22;40342;52.998;5.862;2023-02-15T13:55:26;9.90;99.90
54431;DHT22;40342;52.998;5.862;2023-02-15T13:57:56;9.90;99.90
54431;DHT22;40342;52.998;5.862;2023-02-15T14:02:56;10.00;99.90
54431;DHT22;40342;52.998;5.862;2023-02-15T14:05:29;10.00;99.90
54431;DHT22;40342;52.998;5.862;2023-02-15T14:07:59;10.00;99.90
54431;DHT22;40342;52.998;5.862;2023-02-15T14:13:10;10.00;99.90
54431;DHT22;40342;52.998;5.862;2023-02-15T14:18:20;10.00;99.90
54431;DHT22;40342;52.998;5.862;2023-02-15T14:25:42;10.10;99.90
54431;DHT22;40342;52.998;5.862;2023-02-15T14:28:20;10.10;99.90
54431;DHT22;40342;52.998;5.862;2023-02-15T14:30:49;10.20;99.90
54431;DHT22;40342;52.998;5.862;2023-02-15T14:35:41;10.30;99.90
54431;DHT22;40342;52.998;5.862;2023-02-15T14:40:57;10.40;99.90
54431;DHT22;40342;52.998;5.862;2023-02-15T14:48:31;10.60;99.90
54431;DHT22;40342;52.998;5.862;2023-02-15T14:50:56;10.60;99.90
54431;DHT22;40342;52.998;5.862;2023-02-15T15:01:15;10.40;99.90
54431;DHT22;40342;52.998;5.862;2023-02-15T15:03:47;10.40;99.90
54431;DHT22;40342;52.998;5.862;2023-02-15T15:06:24;10.30;99.90
54431;DHT22;40342;52.998;5.862;2023-02-15T15:08:50;10.20;99.90
54431;DHT22;40342;52.998;5.862;2023-02-15T15:13:55;10.10;99.90
54431;DHT22;40342;52.998;5.862;2023-02-15T15:16:29;10.00;99.90
54431;DHT22;40342;52.998;5.862;2023-02-15T15:18:55;9.90;99.90
54431;DHT22;40342;52.998;5.862;2023-02-15T15:24:05;9.80;99.90
54431;DHT22;40342;52.998;5.862;2023-02-15T15:26:31;9.70;99.90
54431;DHT22;40342;52.998;5.862;2023-02-15T15:29:06;9.70;99.90
54431;DHT22;40342;52.998;5.862;2023-02-15T15:36:53;9.60;99.90
54431;DHT22;40342;52.998;5.862;2023-02-15T15:47:20;9.50;99.90
54431;DHT22;40342;52.998;5.862;2023-02-15T15:49:50;9.40;99.90
54431;DHT22;40342;52.998;5.862;2023-02-15T15:52:20;9.40;99.90
54431;DHT22;40342;52.998;5.862;2023-02-15T15:54:48;9.30;99.90
54431;DHT22;40342;52.998;5.862;2023-02-15T15:57:23;9.30;99.90
54431;DHT22;40342;52.998;5.862;2023-02-15T15:59:51;9.20;99.90
54431;DHT22;40342;52.998;5.862;2023-02-15T16:02:17;9.10;99.90
54431;DHT22;40342;52.998;5.862;2023-02-15T16:04:43;9.10;99.90
54431;DHT22;40342;52.998;5.862;2023-02-15T16:12:20;8.90;99.90
54431;DHT22;40342;52.998;5.862;2023-02-15T16:14:46;8.80;99.90
54431;DHT22;40342;52.998;5.862;2023-02-15T16:17:18;8.80;99.90
54431;DHT22;40342;52.998;5.862;2023-02-15T16:19:44;8.70;99.90
54431;DHT22;40342;52.998;5.862;2023-02-15T16:22:14;8.60;99.90
54431;DHT22;40342;52.998;5.862;2023-02-15T16:29:40;8.50;99.90
54431;DHT22;40342;52.998;5.862;2023-02-15T16:32:15;8.40;99.90
54431;DHT22;40342;52.998;5.862;2023-02-15T16:34:54;8.30;99.90
54431;DHT22;40342;52.998;5.862;2023-02-15T16:37:21;8.20;99.90
54431;DHT22;40342;52.998;5.862;2023-02-15T16:39:48;8.20;99.90
54431;DHT22;40342;52.998;5.862;2023-02-15T16:42:14;8.10;99.90
54431;DHT22;40342;52.998;5.862;2023-02-15T16:44:40;8.10;99.90
54431;DHT22;40342;52.998;5.862;2023-02-15T16:47:12;8.00;99.90
54431;DHT22;40342;52.998;5.862;2023-02-15T16:49:38;8.00;99.90
54431;DHT22;40342;52.998;5.862;2023-02-15T16:52:10;7.90;99.90
54431;DHT22;40342;52.998;5.862;2023-02-15T16:54:39;7.80;99.90
54431;DHT22;40342;52.998;5.862;2023-02-15T16:57:13;7.80;99.90
54431;DHT22;40342;52.998;5.862;2023-02-15T16:59:44;7.70;99.90
54431;DHT22;40342;52.998;5.862;2023-02-15T17:02:12;7.70;99.90
54431;DHT22;40342;52.998;5.862;2023-02-15T17:04:39;7.60;99.90
54431;DHT22;40342;52.998;5.862;2023-02-15T17:07:15;7.60;99.90
54431;DHT22;40342;52.998;5.862;2023-02-15T17:09:52;7.50;99.90
54431;DHT22;40342;52.998;5.862;2023-02-15T17:15:02;7.50;99.90
54431;DHT22;40342;52.998;5.862;2023-02-15T17:17:28;7.40;99.90
54431;DHT22;40342;52.998;5.862;2023-02-15T17:19:56;7.40;99.90
54431;DHT22;40342;52.998;5.862;2023-02-15T17:22:22;7.30;99.90
54431;DHT22;40342;52.998;5.862;2023-02-15T17:24:50;7.30;99.90
54431;DHT22;40342;52.998;5.862;2023-02-15T17:27:23;7.20;99.90
54431;DHT22;40342;52.998;5.862;2023-02-15T17:30:32;7.20;99.90
54431;DHT22;40342;52.998;5.862;2023-02-15T17:32:38;7.20;99.90
54431;DHT22;40342;52.998;5.862;2023-02-15T17:37:43;7.00;99.90
54431;DHT22;40342;52.998;5.862;2023-02-15T17:40:22;7.00;99.90
54431;DHT22;40342;52.998;5.862;2023-02-15T17:42:48;7.00;99.90
54431;DHT22;40342;52.998;5.862;2023-02-15T17:45:14;6.90;99.90
54431;DHT22;40342;52.998;5.862;2023-02-15T17:47:40;6.90;99.90
54431;DHT22;40342;52.998;5.862;2023-02-15T17:50:06;6.80;99.90
54431;DHT22;40342;52.998;5.862;2023-02-15T17:52:32;6.80;99.90
54431;DHT22;40342;52.998;5.862;2023-02-15T17:54:57;6.80;99.90
54431;DHT22;40342;52.998;5.862;2023-02-15T17:57:41;6.80;99.90
54431;DHT22;40342;52.998;5.862;2023-02-15T18:00:07;6.70;99.90
54431;DHT22;40342;52.998;5.862;2023-02-15T18:02:51;6.70;99.90
54431;DHT22;40342;52.998;5.862;2023-02-15T18:05:36;6.70;99.90
54431;DHT22;40342;52.998;5.862;2023-02-15T18:08:22;6.60;99.90
54431;DHT22;40342;52.998;5.862;2023-02-15T18:11:09;6.70;99.90
54431;DHT22;40342;52.998;5.862;2023-02-15T18:13:54;6.60;99.90
54431;DHT22;40342;52.998;5.862;2023-02-15T18:16:25;6.70;99.90
54431;DHT22;40342;52.998;5.862;2023-02-15T18:18:51;6.60;99.90
54431;DHT22;40342;52.998;5.862;2023-02-15T18:21:17;6.60;99.90
54431;DHT22;40342;52.998;5.862;2023-02-15T18:23:43;6.60;99.90
54431;DHT22;40342;52.998;5.862;2023-02-15T18:26:09;6.60;99.90
54431;DHT22;40342;52.998;5.862;2023-02-15T18:28:37;6.60;99.90
54431;DHT22;40342;52.998;5.862;2023-02-15T18:31:02;6.60;99.90